Weather at Jasper Lee Airport [CLOSED]

Public forecast

Using degrees Fahrenheit for public forecast. Weather courtesy of forecast.io.

Closest aviation weather report (METAR) to Jasper Lee Airport

Closest report is Dallas Fort Worth International Airport, 4.7 nm (8.7 km) NW.

2024/05/20 20:53 (retrieved 1 hour ago)

KDFW 202053Z 17015G24KT 10SM CLR 32/19 A2976 RMK AO2 PK WND 14026/1957 SLP068 T03220194 58019

Closest aviation forecast (TAF) to Jasper Lee Airport

Closest forecast is Dallas Fort Worth International Airport, 4.7 nm (8.7 km) NW.

2024/05/20 21:06 Ammendment (retrieved 50 minutes ago)

TAF AMD KDFW 202103Z 2021/2124 17015G25KT P6SM SCT250 FM211000 18016KT P6SM BKN012 FM211600 19016KT P6SM BKN025 FM211800 18016KT P6SM SCT030 BKN050